Time;durP1;ratioP1;P1;durP2;ratioP2;P2;SDS_P1;SDS_P2;PMS_P1;PMS_P2;Temp;Humidity;BMP_temperature;BMP_pressure;BME280_temperature;BME280_humidity;BME280_pressure;Samples;Min_cycle;Max_cycle;Signal;HPM_P1;HPM_P2
2020/12/04 00:01:22;;;;;;;;;;;;;;;;;;5065735;28;19949;-64
2020/12/04 00:03:48;;;;;;;;;;;19.60;26.30;;;;;;5076893;28;19958;-65
2020/12/04 00:06:14;;;;;;;;;;;;;;;;;;5079835;28;20380;-63
2020/12/04 00:08:40;;;;;;;;;;;19.30;27.40;;;;;;5080742;28;19951;-63
2020/12/04 00:11:06;;;;;;;;;;;19.30;26.40;;;;;;5078892;28;20280;-64
2020/12/04 00:13:32;;;;;;;;;;;19.20;26.40;;;;;;5080411;28;20271;-63
2020/12/04 00:16:00;;;;;;;;;;;19.10;27.30;;;;;;5078961;28;19938;-64
2020/12/04 00:18:26;;;;;;;;;;;19.00;26.80;;;;;;5083426;28;19928;-65
2020/12/04 00:20:53;;;;;;;;;;;;;;;;;;5078895;28;19943;-64
2020/12/04 00:23:22;;;;;;;;;;;18.90;26.40;;;;;;5059904;28;20370;-64
2020/12/04 00:25:48;;;;;;;;;;;;;;;;;;5077465;28;20385;-63
2020/12/04 00:28:14;;;;;;;;;;;18.70;23.00;;;;;;5077368;28;19987;-63
2020/12/04 00:30:40;;;;;;;;;;;18.70;20.50;;;;;;5076648;28;19967;-65
2020/12/04 00:33:06;;;;;;;;;;;18.80;22.20;;;;;;5080186;28;20042;-64
2020/12/04 00:35:33;;;;;;;;;;;18.50;26.80;;;;;;5079149;28;19923;-60
2020/12/04 00:37:59;;;;;;;;;;;;;;;;;;5055768;28;19928;-59
2020/12/04 00:40:25;;;;;;;;;;;18.50;26.20;;;;;;5076950;28;19936;-59
2020/12/04 00:42:51;;;;;;;;;;;18.30;24.40;;;;;;5077673;28;19945;-59
2020/12/04 00:45:17;;;;;;;;;;;18.10;26.00;;;;;;5077258;28;19961;-58
2020/12/04 00:47:43;;;;;;;;;;;18.20;26.30;;;;;;5077083;28;19944;-58
2020/12/04 00:50:09;;;;;;;;;;;18.00;26.00;;;;;;5074404;28;19989;-56
2020/12/04 00:52:36;;;;;;;;;;;17.80;26.90;;;;;;5078497;28;20553;-61
2020/12/04 00:55:02;;;;;;;;;;;17.90;27.40;;;;;;5077037;28;19939;-60
2020/12/04 00:57:28;;;;;;;;;;;17.70;28.60;;;;;;5058911;28;19945;-60
2020/12/04 00:59:54;;;;;;;;;;;17.60;33.30;;;;;;5059606;28;19982;-57
2020/12/04 01:02:20;;;;;;;;;;;17.50;34.40;;;;;;5077940;28;19927;-59
2020/12/04 01:04:46;;;;;;;;;;;17.50;30.80;;;;;;5083371;28;19973;-58
2020/12/04 01:07:12;;;;;;;;;;;17.40;33.10;;;;;;5080120;28;19932;-60
2020/12/04 01:09:38;;;;;;;;;;;17.30;30.20;;;;;;5079580;28;20058;-58
2020/12/04 01:12:05;;;;;;;;;;;17.20;31.40;;;;;;5078129;28;19932;-59
2020/12/04 01:14:31;;;;;;;;;;;17.20;31.50;;;;;;5078259;28;20080;-56
2020/12/04 01:16:57;;;;;;;;;;;17.10;30.90;;;;;;5079972;28;19937;-60
2020/12/04 01:19:23;;;;;;;;;;;;;;;;;;5079950;28;19990;-56
2020/12/04 01:21:50;;;;;;;;;;;;;;;;;;5077809;28;19940;-57
2020/12/04 01:24:16;;;;;;;;;;;;;;;;;;5080376;28;19990;-59
2020/12/04 01:26:42;;;;;;;;;;;;;;;;;;5079541;28;20025;-59
2020/12/04 01:29:08;;;;;;;;;;;16.70;31.80;;;;;;5078458;28;19960;-60
2020/12/04 01:31:34;;;;;;;;;;;16.70;30.00;;;;;;5081633;28;19935;-59
2020/12/04 01:34:00;;;;;;;;;;;16.60;30.80;;;;;;5079760;28;19937;-58
2020/12/04 01:36:27;;;;;;;;;;;;;;;;;;5080466;28;19943;-56
2020/12/04 01:38:53;;;;;;;;;;;16.50;32.80;;;;;;5083486;28;19963;-59
2020/12/04 01:41:19;;;;;;;;;;;;;;;;;;5058233;28;19969;-59
2020/12/04 01:43:45;;;;;;;;;;;;;;;;;;5080743;28;20374;-56
2020/12/04 01:46:13;;;;;;;;;;;16.10;23.80;;;;;;5081384;28;20014;-58
2020/12/04 01:48:39;;;;;;;;;;;16.20;25.00;;;;;;5077373;28;20358;-54
2020/12/04 01:51:05;;;;;;;;;;;16.20;24.90;;;;;;5082728;28;20423;-60
2020/12/04 01:53:33;;;;;;;;;;;16.20;24.70;;;;;;5078028;28;19960;-60
2020/12/04 01:56:00;;;;;;;;;;;16.30;24.80;;;;;;5078815;28;19967;-58
2020/12/04 01:58:27;;;;;;;;;;;16.10;24.00;;;;;;5079173;28;19963;-57
2020/12/04 02:00:53;;;;;;;;;;;;;;;;;;5083508;28;20047;-60
2020/12/04 02:03:19;;;;;;;;;;;16.00;23.40;;;;;;5077466;28;19959;-59
2020/12/04 02:05:53;;;;;;;;;;;15.90;23.30;;;;;;5079104;28;19960;-58
2020/12/04 02:08:22;;;;;;;;;;;15.90;23.00;;;;;;5083398;28;19966;-60
2020/12/04 02:10:50;;;;;;;;;;;16.00;23.20;;;;;;5076251;28;19960;-59
2020/12/04 02:13:17;;;;;;;;;;;16.00;21.80;;;;;;5078832;28;19964;-58
2020/12/04 02:15:44;;;;;;;;;;;15.90;23.20;;;;;;5063771;28;19968;-57
2020/12/04 02:18:10;;;;;;;;;;;;;;;;;;5076815;28;20408;-57
2020/12/04 02:20:36;;;;;;;;;;;15.80;23.10;;;;;;5083345;28;20436;-58
2020/12/04 02:23:03;;;;;;;;;;;15.70;22.20;;;;;;5081431;28;19967;-59
2020/12/04 02:25:29;;;;;;;;;;;15.70;21.50;;;;;;5061634;28;20425;-59
2020/12/04 02:27:55;;;;;;;;;;;15.70;21.90;;;;;;5081535;28;19961;-60
2020/12/04 02:30:27;;;;;;;;;;;15.60;21.20;;;;;;5074666;28;19980;-57
2020/12/04 02:32:53;;;;;;;;;;;15.60;21.10;;;;;;5081549;28;20345;-60
2020/12/04 02:35:19;;;;;;;;;;;15.70;21.20;;;;;;5077526;28;20064;-58
2020/12/04 02:37:45;;;;;;;;;;;;;;;;;;5072930;28;19999;-59
2020/12/04 02:40:11;;;;;;;;;;;15.70;21.10;;;;;;5074163;28;20046;-59
2020/12/04 02:42:40;;;;;;;;;;;15.70;20.60;;;;;;5074818;28;20008;-58
2020/12/04 02:45:06;;;;;;;;;;;15.80;20.80;;;;;;5077592;28;19973;-58
2020/12/04 02:47:32;;;;;;;;;;;;;;;;;;5075565;28;20015;-57
2020/12/04 02:49:58;;;;;;;;;;;15.60;21.90;;;;;;5073060;28;19996;-57
2020/12/04 02:52:24;;;;;;;;;;;;;;;;;;5076512;28;20069;-60
2020/12/04 02:54:51;;;;;;;;;;;15.50;21.10;;;;;;5072721;28;19941;-58
2020/12/04 02:57:17;;;;;;;;;;;15.30;19.20;;;;;;5076563;28;19964;-55
2020/12/04 02:59:44;;;;;;;;;;;15.40;19.00;;;;;;5075618;28;19971;-58
2020/12/04 03:02:10;;;;;;;;;;;15.40;19.00;;;;;;5077371;28;19961;-60
2020/12/04 03:04:37;;;;;;;;;;;15.40;18.70;;;;;;5074505;28;19965;-61
2020/12/04 03:07:03;;;;;;;;;;;15.30;18.50;;;;;;5077766;28;19969;-60
2020/12/04 03:09:30;;;;;;;;;;;15.30;18.90;;;;;;5074917;28;19989;-59
2020/12/04 03:11:56;;;;;;;;;;;15.30;19.50;;;;;;5077206;28;19967;-59
2020/12/04 03:14:23;;;;;;;;;;;15.20;18.90;;;;;;5073689;28;19972;-59
2020/12/04 03:16:49;;;;;;;;;;;15.30;18.70;;;;;;5071312;28;20060;-60
2020/12/04 03:19:16;;;;;;;;;;;15.30;19.90;;;;;;5079990;28;19979;-59
2020/12/04 03:21:42;;;;;;;;;;;15.20;18.30;;;;;;5077233;28;19972;-59
2020/12/04 03:24:08;;;;;;;;;;;15.30;19.60;;;;;;5077362;28;19960;-57
2020/12/04 03:26:35;;;;;;;;;;;15.20;20.00;;;;;;5081018;28;20056;-59
2020/12/04 03:29:01;;;;;;;;;;;15.30;19.80;;;;;;5069139;28;20048;-56
2020/12/04 03:31:27;;;;;;;;;;;15.10;19.90;;;;;;5078613;28;19994;-60
2020/12/04 03:33:53;;;;;;;;;;;14.90;19.50;;;;;;5079374;28;19973;-59
2020/12/04 03:36:19;;;;;;;;;;;15.00;18.90;;;;;;5076811;28;19961;-59
2020/12/04 03:38:46;;;;;;;;;;;15.00;19.00;;;;;;5082225;28;20075;-56
2020/12/04 03:41:12;;;;;;;;;;;15.00;18.90;;;;;;5064605;28;19980;-59
2020/12/04 03:43:41;;;;;;;;;;;14.70;19.70;;;;;;5078322;28;19983;-62
2020/12/04 03:46:11;;;;;;;;;;;14.90;19.90;;;;;;5079489;28;19961;-58
2020/12/04 03:48:38;;;;;;;;;;;14.90;20.10;;;;;;5083135;28;20445;-57
2020/12/04 03:51:04;;;;;;;;;;;14.80;21.20;;;;;;5066230;28;19996;-59
2020/12/04 03:53:30;;;;;;;;;;;14.60;21.70;;;;;;5082562;28;19965;-58
2020/12/04 03:55:57;;;;;;;;;;;14.50;22.20;;;;;;5082225;28;20433;-60
2020/12/04 03:58:23;;;;;;;;;;;14.50;21.90;;;;;;5085266;28;19965;-56
2020/12/04 04:00:49;;;;;;;;;;;14.50;22.00;;;;;;5077741;28;19968;-60
2020/12/04 04:03:15;;;;;;;;;;;14.30;22.90;;;;;;5082953;28;20052;-60
2020/12/04 04:05:41;;;;;;;;;;;14.20;23.40;;;;;;5063571;28;20011;-57
2020/12/04 04:08:08;;;;;;;;;;;14.20;23.70;;;;;;5082782;28;19969;-58
2020/12/04 04:10:34;;;;;;;;;;;14.20;24.10;;;;;;5080992;28;19977;-59
2020/12/04 04:13:00;;;;;;;;;;;14.00;23.90;;;;;;5081132;28;19961;-61
2020/12/04 04:15:26;;;;;;;;;;;13.90;24.30;;;;;;5078056;28;19979;-61
2020/12/04 04:17:52;;;;;;;;;;;13.80;23.60;;;;;;5077674;28;19969;-59
2020/12/04 04:20:18;;;;;;;;;;;13.80;23.80;;;;;;5061261;28;20356;-58
2020/12/04 04:22:44;;;;;;;;;;;13.80;23.90;;;;;;5077695;28;19968;-60
2020/12/04 04:25:12;;;;;;;;;;;13.70;24.90;;;;;;5082403;28;20036;-55
2020/12/04 04:27:39;;;;;;;;;;;13.60;24.70;;;;;;5078370;28;20466;-57
2020/12/04 04:30:06;;;;;;;;;;;13.40;24.60;;;;;;5078358;28;19996;-58
2020/12/04 04:32:32;;;;;;;;;;;13.40;24.10;;;;;;5082034;28;20052;-58
2020/12/04 04:34:58;;;;;;;;;;;13.40;24.20;;;;;;5078463;28;19980;-59
2020/12/04 04:37:24;;;;;;;;;;;13.50;24.60;;;;;;5075285;28;19969;-58
2020/12/04 04:39:50;;;;;;;;;;;13.40;25.10;;;;;;5080071;28;20426;-55
2020/12/04 04:42:17;;;;;;;;;;;13.30;25.20;;;;;;5079697;28;20008;-58
2020/12/04 04:44:44;;;;;;;;;;;13.00;25.90;;;;;;5085214;28;19965;-59
2020/12/04 04:47:11;;;;;;;;;;;13.10;27.80;;;;;;5077778;28;19972;-60
2020/12/04 04:49:44;;;;;;;;;;;13.40;28.10;;;;;;5077945;28;20000;-58
2020/12/04 04:52:10;;;;;;;;;;;;;;;;;;5080061;28;19960;-59
2020/12/04 04:54:39;;;;;;;;;;;13.40;31.30;;;;;;5083626;28;20053;-58
2020/12/04 04:57:06;;;;;;;;;;;;;;;;;;5081904;28;20048;-61
2020/12/04 04:59:32;;;;;;;;;;;12.90;43.20;;;;;;5083784;28;20043;-59
2020/12/04 05:01:58;;;;;;;;;;;;;;;;;;5082648;28;19912;-60
2020/12/04 05:04:24;;;;;;;;;;;13.00;49.90;;;;;;5078769;28;20241;-60
2020/12/04 05:06:50;;;;;;;;;;;;;;;;;;5081297;28;20043;-59
2020/12/04 05:09:17;;;;;;;;;;;;;;;;;;5082556;28;19936;-60
2020/12/04 05:11:56;;;;;;;;;;;13.10;42.40;;;;;;5077439;28;19937;-59
2020/12/04 05:14:24;;;;;;;;;;;13.20;28.00;;;;;;5084042;28;19961;-58
2020/12/04 05:16:52;;;;;;;;;;;13.00;43.10;;;;;;5082140;28;19931;-60
2020/12/04 05:19:28;;;;;;;;;;;13.00;40.00;;;;;;5078157;28;19981;-60
2020/12/04 05:21:54;;;;;;;;;;;13.10;43.00;;;;;;5061250;28;20033;-61
2020/12/04 05:24:21;;;;;;;;;;;;;;;;;;5083039;28;19946;-61
2020/12/04 05:26:47;;;;;;;;;;;;;;;;;;5080000;28;20410;-59
2020/12/04 05:29:13;;;;;;;;;;;12.80;40.50;;;;;;5081171;28;19952;-61
2020/12/04 05:31:39;;;;;;;;;;;12.80;39.60;;;;;;5080518;28;19937;-61
2020/12/04 05:34:21;;;;;;;;;;;12.60;40.00;;;;;;5079314;28;20029;-61
2020/12/04 05:36:51;;;;;;;;;;;12.60;42.10;;;;;;5082617;28;19941;-59
2020/12/04 05:39:17;;;;;;;;;;;;;;;;;;5081152;28;20061;-60
2020/12/04 05:41:43;;;;;;;;;;;;;;;;;;5083484;28;19960;-59
2020/12/04 05:44:09;;;;;;;;;;;12.50;29.30;;;;;;5080927;28;20458;-61
2020/12/04 05:46:35;;;;;;;;;;;;;;;;;;5080497;28;19982;-60
2020/12/04 05:49:04;;;;;;;;;;;12.50;28.90;;;;;;5082097;28;20451;-60
2020/12/04 05:51:32;;;;;;;;;;;12.70;29.30;;;;;;5079202;28;19971;-60
2020/12/04 05:53:59;;;;;;;;;;;12.70;29.30;;;;;;5060825;28;20327;-59
2020/12/04 05:56:25;;;;;;;;;;;12.60;29.50;;;;;;5079837;28;19967;-60
2020/12/04 05:58:51;;;;;;;;;;;;;;;;;;5081887;28;19980;-58
2020/12/04 06:01:17;;;;;;;;;;;;;;;;;;5079463;28;20024;-62
2020/12/04 06:03:48;;;;;;;;;;;12.50;31.20;;;;;;5078989;28;20434;-58
2020/12/04 06:06:22;;;;;;;;;;;12.60;28.50;;;;;;5075072;28;19956;-60
2020/12/04 06:08:48;;;;;;;;;;;13.00;33.40;;;;;;5080861;28;20012;-60
2020/12/04 06:11:14;;;;;;;;;;;12.10;33.50;;;;;;5079442;28;20007;-60
2020/12/04 06:13:40;;;;;;;;;;;12.50;37.00;;;;;;5063570;28;19960;-60
2020/12/04 06:16:13;;;;;;;;;;;12.20;41.50;;;;;;5078907;28;20018;-60
2020/12/04 06:18:40;;;;;;;;;;;12.20;43.30;;;;;;5079483;28;19994;-59
2020/12/04 06:21:06;;;;;;;;;;;12.50;47.20;;;;;;5079858;28;20015;-60
2020/12/04 06:23:33;;;;;;;;;;;;;;;;;;5081564;28;20023;-57
2020/12/04 06:26:07;;;;;;;;;;;12.00;49.20;;;;;;5058838;28;20031;-59
2020/12/04 06:28:42;;;;;;;;;;;11.90;50.10;;;;;;5077501;28;19928;-64
2020/12/04 06:31:09;;;;;;;;;;;11.80;48.30;;;;;;5074018;28;20284;-61
2020/12/04 06:33:35;;;;;;;;;;;;;;;;;;5076826;28;19939;-59
2020/12/04 06:36:02;;;;;;;;;;;;;;;;;;5078097;28;19934;-61
2020/12/04 06:38:31;;;;;;;;;;;12.10;42.80;;;;;;5060932;28;19966;-59
2020/12/04 06:40:57;;;;;;;;;;;;;;;;;;5078963;28;19969;-59
2020/12/04 06:43:35;;;;;;;;;;;12.00;47.30;;;;;;5077058;28;19948;-60
2020/12/04 06:46:01;;;;;;;;;;;11.80;51.60;;;;;;5077803;28;19913;-60
2020/12/04 06:48:27;;;;;;;;;;;12.10;44.30;;;;;;5077709;28;19982;-58
2020/12/04 06:50:53;;;;;;;;;;;12.10;42.30;;;;;;5079507;28;20089;-63
2020/12/04 06:53:19;;;;;;;;;;;11.30;47.10;;;;;;5081225;28;20016;-59
2020/12/04 06:55:48;;;;;;;;;;;11.70;45.00;;;;;;5079145;28;20396;-60
2020/12/04 06:58:14;;;;;;;;;;;11.40;49.80;;;;;;5079543;28;19935;-60
2020/12/04 07:00:40;;;;;;;;;;;11.30;40.20;;;;;;5079423;28;20320;-60
2020/12/04 07:03:06;;;;;;;;;;;11.50;33.70;;;;;;5078061;28;19965;-60
2020/12/04 07:05:33;;;;;;;;;;;11.80;34.40;;;;;;5079289;28;19969;-61
2020/12/04 07:07:59;;;;;;;;;;;;;;;;;;5060054;28;19964;-59
2020/12/04 07:10:25;;;;;;;;;;;11.50;33.10;;;;;;5078858;28;20439;-59
2020/12/04 07:12:51;;;;;;;;;;;;;;;;;;5085685;28;19967;-60
2020/12/04 07:15:18;;;;;;;;;;;;;;;;;;5083207;28;20438;-60
2020/12/04 07:17:44;;;;;;;;;;;11.90;44.90;;;;;;5078407;28;19940;-60
2020/12/04 07:20:10;;;;;;;;;;;11.80;48.80;;;;;;5076936;28;19957;-55
2020/12/04 07:22:36;;;;;;;;;;;;;;;;;;5076510;28;19937;-58
2020/12/04 07:25:06;;;;;;;;;;;11.70;52.70;;;;;;5078273;28;19952;-59
2020/12/04 07:27:32;;;;;;;;;;;11.00;59.00;;;;;;5080010;28;19982;-57
2020/12/04 07:29:58;;;;;;;;;;;11.30;42.90;;;;;;5084040;28;20022;-58
2020/12/04 07:32:24;;;;;;;;;;;;;;;;;;5081670;28;19951;-60
2020/12/04 07:34:51;;;;;;;;;;;11.80;36.10;;;;;;5076800;28;19979;-60
2020/12/04 07:37:17;;;;;;;;;;;11.80;41.60;;;;;;5076191;28;19928;-59
2020/12/04 07:39:43;;;;;;;;;;;;;;;;;;5079934;28;20501;-56
2020/12/04 07:42:09;;;;;;;;;;;;;;;;;;5079521;28;19936;-60
2020/12/04 07:44:38;;;;;;;;;;;11.50;44.10;;;;;;5078747;28;20052;-58
2020/12/04 07:47:05;;;;;;;;;;;11.60;39.10;;;;;;5061187;28;20037;-59
2020/12/04 07:49:32;;;;;;;;;;;11.60;41.00;;;;;;5079223;28;19970;-60
2020/12/04 07:51:58;;;;;;;;;;;;;;;;;;5074969;28;19991;-59
2020/12/04 07:54:25;;;;;;;;;;;;;;;;;;5078684;28;19945;-60
2020/12/04 07:56:52;;;;;;;;;;;11.60;38.10;;;;;;5078864;28;20409;-59
2020/12/04 07:59:39;;;;;;;;;;;11.40;46.90;;;;;;5076021;28;19973;-59
2020/12/04 08:02:05;;;;;;;;;;;;;;;;;;5078989;28;20306;-57
2020/12/04 08:04:32;;;;;;;;;;;11.70;39.90;;;;;;5077776;28;20422;-59
2020/12/04 08:07:05;;;;;;;;;;;11.20;48.40;;;;;;5075109;28;20296;-60
2020/12/04 08:09:33;;;;;;;;;;;10.80;41.10;;;;;;5074643;28;19945;-60
2020/12/04 08:12:00;;;;;;;;;;;11.00;35.40;;;;;;5077805;28;19989;-59
2020/12/04 08:14:29;;;;;;;;;;;10.90;39.50;;;;;;5075270;28;20031;-59
2020/12/04 08:17:00;;;;;;;;;;;11.20;53.10;;;;;;5077813;28;19946;-59
2020/12/04 08:19:36;;;;;;;;;;;11.20;45.40;;;;;;5079294;28;19985;-59
2020/12/04 08:22:02;;;;;;;;;;;;;;;;;;5077144;28;19939;-60
2020/12/04 08:24:28;;;;;;;;;;;;;;;;;;5076588;28;19959;-58
2020/12/04 08:26:55;;;;;;;;;;;;;;;;;;5073320;28;20431;-60
2020/12/04 08:29:21;;;;;;;;;;;;;;;;;;5077175;28;19932;-59
2020/12/04 08:31:47;;;;;;;;;;;11.40;32.70;;;;;;5079359;28;20050;-60
2020/12/04 08:34:13;;;;;;;;;;;;;;;;;;5077696;28;19961;-60
2020/12/04 08:36:39;;;;;;;;;;;10.80;29.30;;;;;;5077023;28;20401;-58
2020/12/04 08:39:05;;;;;;;;;;;10.80;27.90;;;;;;5076052;28;19989;-60
2020/12/04 08:41:35;;;;;;;;;;;11.20;27.90;;;;;;5077759;28;19968;-60
2020/12/04 08:44:01;;;;;;;;;;;11.10;27.50;;;;;;5079383;28;19961;-58
2020/12/04 08:46:27;;;;;;;;;;;11.00;28.50;;;;;;5079087;28;19969;-58
2020/12/04 08:48:53;;;;;;;;;;;10.90;30.10;;;;;;5080110;28;19993;-58
2020/12/04 08:51:20;;;;;;;;;;;10.90;31.00;;;;;;5081356;28;19961;-60
2020/12/04 08:53:46;;;;;;;;;;;11.10;30.50;;;;;;5077902;28;20489;-59
2020/12/04 08:56:13;;;;;;;;;;;11.30;31.70;;;;;;5082268;28;20013;-57
2020/12/04 08:58:39;;;;;;;;;;;10.90;38.40;;;;;;5080482;28;19972;-58
2020/12/04 09:01:05;;;;;;;;;;;;;;;;;;5075947;28;19967;-60
2020/12/04 09:03:31;;;;;;;;;;;;;;;;;;5076304;28;19969;-58
2020/12/04 09:05:57;;;;;;;;;;;11.20;30.10;;;;;;5076752;28;20046;-58
2020/12/04 09:08:23;;;;;;;;;;;10.90;39.40;;;;;;5080306;28;19969;-60
2020/12/04 09:10:50;;;;;;;;;;;11.10;33.30;;;;;;5062825;28;19960;-60
2020/12/04 09:13:16;;;;;;;;;;;11.00;29.80;;;;;;5080695;28;20030;-59
2020/12/04 09:15:42;;;;;;;;;;;11.10;33.30;;;;;;5078157;28;20068;-59
2020/12/04 09:18:08;;;;;;;;;;;;;;;;;;5079444;28;19973;-61
2020/12/04 09:20:35;;;;;;;;;;;10.90;34.00;;;;;;5076541;28;19981;-59
2020/12/04 09:23:01;;;;;;;;;;;;;;;;;;5059220;28;19964;-59
2020/12/04 09:25:27;;;;;;;;;;;10.60;38.30;;;;;;5080466;28;20014;-59
2020/12/04 09:27:53;;;;;;;;;;;10.70;37.30;;;;;;5078293;28;20382;-59
2020/12/04 09:30:21;;;;;;;;;;;10.70;45.10;;;;;;5082970;28;19946;-60
2020/12/04 09:32:48;;;;;;;;;;;10.80;49.80;;;;;;5077490;28;19943;-58
2020/12/04 09:35:14;;;;;;;;;;;10.60;34.10;;;;;;5074116;28;20374;-59
2020/12/04 09:37:42;;;;;;;;;;;10.80;34.30;;;;;;5078983;28;20003;-59
2020/12/04 09:40:11;;;;;;;;;;;10.40;34.80;;;;;;5081106;28;19981;-59
2020/12/04 09:42:38;;;;;;;;;;;10.60;34.50;;;;;;5079153;28;19965;-60
2020/12/04 09:45:05;;;;;;;;;;;10.70;35.20;;;;;;5079347;28;19988;-59
2020/12/04 09:47:31;;;;;;;;;;;10.40;38.70;;;;;;5079818;28;20032;-60
2020/12/04 09:49:58;;;;;;;;;;;10.40;39.00;;;;;;5059755;28;19987;-60
2020/12/04 09:52:24;;;;;;;;;;;;;;;;;;5078185;28;19964;-60
2020/12/04 09:54:50;;;;;;;;;;;10.30;40.80;;;;;;5082289;28;20323;-60
2020/12/04 09:57:17;;;;;;;;;;;10.30;38.00;;;;;;5078287;28;19960;-59
2020/12/04 09:59:43;;;;;;;;;;;10.30;35.60;;;;;;5078447;28;20028;-58
2020/12/04 10:02:10;;;;;;;;;;;10.30;36.10;;;;;;5080102;28;20056;-58
2020/12/04 10:04:38;;;;;;;;;;;10.20;36.50;;;;;;5078343;28;20050;-60
2020/12/04 10:07:05;;;;;;;;;;;10.20;40.40;;;;;;5074292;28;19961;-58
2020/12/04 10:09:31;;;;;;;;;;;;;;;;;;5077806;28;19971;-58
2020/12/04 10:11:57;;;;;;;;;;;9.90;42.20;;;;;;5059489;28;19961;-58
2020/12/04 10:14:24;;;;;;;;;;;9.90;39.70;;;;;;5078087;28;20026;-58
2020/12/04 10:16:51;;;;;;;;;;;;;;;;;;5076048;28;19967;-59
2020/12/04 10:19:17;;;;;;;;;;;;;;;;;;5078022;28;19980;-58
2020/12/04 10:21:43;;;;;;;;;;;;;;;;;;5080100;28;20048;-60
2020/12/04 10:24:10;;;;;;;;;;;;;;;;;;5077278;28;20052;-59
2020/12/04 10:26:36;;;;;;;;;;;9.80;30.90;;;;;;5078946;28;20432;-58
2020/12/04 10:29:03;;;;;;;;;;;9.90;41.90;;;;;;5079538;28;19960;-59
2020/12/04 10:31:29;;;;;;;;;;;9.80;36.40;;;;;;5078392;28;19968;-58
2020/12/04 10:33:55;;;;;;;;;;;9.80;35.20;;;;;;5075043;28;19969;-58
2020/12/04 10:36:21;;;;;;;;;;;;;;;;;;5080481;28;20328;-58
2020/12/04 10:38:47;;;;;;;;;;;9.70;34.10;;;;;;5076427;28;20007;-59
2020/12/04 10:41:13;;;;;;;;;;;9.70;30.80;;;;;;5076948;28;20295;-58
2020/12/04 10:43:39;;;;;;;;;;;9.80;34.70;;;;;;5076953;28;19968;-58
2020/12/04 10:46:05;;;;;;;;;;;;;;;;;;5076924;28;19961;-59
2020/12/04 10:48:32;;;;;;;;;;;9.50;47.20;;;;;;5078424;28;20000;-56
2020/12/04 10:50:58;;;;;;;;;;;;;;;;;;5076174;28;19934;-60
2020/12/04 10:53:26;;;;;;;;;;;9.60;40.40;;;;;;5075591;28;20034;-59
2020/12/04 10:55:53;;;;;;;;;;;9.80;38.30;;;;;;5080505;28;19973;-59
2020/12/04 10:58:19;;;;;;;;;;;;;;;;;;5077303;28;19961;-60
2020/12/04 11:00:48;;;;;;;;;;;9.60;40.50;;;;;;5076541;28;19981;-57
2020/12/04 11:05:24;;;;;;;;;;;;;;;;;;5076955;28;20005;-59
2020/12/04 11:06:00;;;;;;;;;;;9.30;45.00;;;;;;5077158;28;19943;-59
2020/12/04 11:08:26;;;;;;;;;;;9.30;47.50;;;;;;5059066;28;19940;-61
2020/12/04 11:10:52;;;;;;;;;;;9.40;63.90;;;;;;5080121;28;19912;-59
2020/12/04 11:13:19;;;;;;;;;;;;;;;;;;5075377;28;19919;-57
2020/12/04 11:15:45;;;;;;;;;;;;;;;;;;5078169;28;20306;-58
2020/12/04 11:18:11;;;;;;;;;;;;;;;;;;5078243;28;19971;-60
2020/12/04 11:20:37;;;;;;;;;;;;;;;;;;5074005;28;20074;-59
2020/12/04 11:23:04;;;;;;;;;;;9.30;50.00;;;;;;5073324;28;19964;-59
2020/12/04 11:25:30;;;;;;;;;;;;;;;;;;5078134;28;19964;-59
2020/12/04 11:27:56;;;;;;;;;;;9.10;33.90;;;;;;5078029;28;19991;-60
2020/12/04 11:30:23;;;;;;;;;;;;;;;;;;5076389;28;19961;-58
2020/12/04 11:32:50;;;;;;;;;;;9.00;39.90;;;;;;5079127;28;19968;-60
2020/12/04 11:35:17;;;;;;;;;;;9.10;37.40;;;;;;5076472;28;19961;-59
2020/12/04 11:37:45;;;;;;;;;;;9.20;34.70;;;;;;5078177;28;20007;-59
2020/12/04 11:40:12;;;;;;;;;;;9.20;46.60;;;;;;5075318;28;20113;-58
2020/12/04 11:42:39;;;;;;;;;;;9.10;33.70;;;;;;5075254;28;19939;-60
2020/12/04 11:45:05;;;;;;;;;;;;;;;;;;5076407;28;20049;-59
2020/12/04 11:47:31;;;;;;;;;;;9.10;31.10;;;;;;5076532;28;19961;-59
2020/12/04 11:49:57;;;;;;;;;;;;;;;;;;5059494;28;20413;-60
2020/12/04 11:52:23;;;;;;;;;;;9.10;31.70;;;;;;5073933;28;20056;-59
2020/12/04 11:54:50;;;;;;;;;;;;;;;;;;5076416;28;19968;-58
2020/12/04 11:57:16;;;;;;;;;;;8.90;38.70;;;;;;5079740;28;19961;-58
2020/12/04 11:59:42;;;;;;;;;;;;;;;;;;5083680;28;19927;-57
2020/12/04 12:02:08;;;;;;;;;;;;;;;;;;5081753;28;19943;-60
2020/12/04 12:04:34;;;;;;;;;;;;;;;;;;5078040;28;19916;-59
2020/12/04 12:07:01;;;;;;;;;;;9.10;41.70;;;;;;5080348;28;20060;-58
